• Join FlightAware (Why Join?)
  • Login
  • US Flag 
11:11PM EDT


 

Airport Tracker/Info


-or-


 

Live Flight TrackerFlight Track Log ✈ N580EA ✈ 22-Apr-2011 ✈ KTQK - KTOP

Flight Track Log - Related Links

Times and Time Zones

All times are in EDT time to prevent confusion due to time zone crossing. See the N580EA flight status page for this flight to view local times or setup timezone preferences in your user account.

Time Position Orientation Groundspeed Altitude Reporting Facility
EDT Latitude Longitude Course Direction KTS MPH feet Rate Location/Type
11:45AM 38.4825 -100.8234 84° East  Level FlightAware Approximate
11:45AM 38.5003 -100.5981 77° East 160 184 7,100  Level Kansas City Center
11:46AM 38.5092 -100.5483 80° East 160 184 7,000 -60 Descending Kansas City Center
11:47AM 38.5186 -100.4825 80° East 178 205 7,000  Level Kansas City Center
11:48AM 38.5286 -100.4064 77° East 186 214 7,000  Level Kansas City Center
11:49AM 38.5403 -100.3411 81° East 186 214 7,000  Level Kansas City Center
11:50AM 38.5475 -100.2806 82° East 191 220 7,000  Level Kansas City Center
11:51AM 38.5547 -100.2119 78° East 191 220 7,000  Level Kansas City Center
11:52AM 38.5667 -100.1411 82° East 191 220 7,000 120 Level Kansas City Center
11:53AM 38.5742 -100.0700 84° East 196 226 7,300 480 Climbing Kansas City Center
11:54AM 38.5783 -100.0225 79° East 171 197 8,000 600 Climbing Kansas City Center
11:55AM 38.5872 -99.9647 76° East 165 190 8,600 480 Climbing Kansas City Center
11:56AM 38.5983 -99.9072 85° East 152 175 9,000 240 Climbing Kansas City Center
11:57AM 38.6033 -99.8383 79° East 168 193 9,100  Climbing Kansas City Center
11:58AM 38.6122 -99.7781 80° East 183 211 9,100  Level Kansas City Center
11:59AM 38.6217 -99.7069 81° East 194 223 9,100  Level Kansas City Center
12:00PM 38.6314 -99.6253 80° East 207 238 9,100  Level Kansas City Center
12:01PM 38.6408 -99.5539 76° East 207 238 9,100 -60 Level Kansas City Center
12:02PM 38.6542 -99.4831 83° East 207 238 9,000 -60 Descending Kansas City Center
12:03PM 38.6614 -99.4092 81° East 207 238 9,000  Level Kansas City Center
12:04PM 38.6708 -99.3328 81° East 207 238 9,000  Level Kansas City Center
12:05PM 38.6800 -99.2614 83° East 207 238 9,000  Level Kansas City Center
12:06PM 38.6869 -99.1875 81° East 207 238 9,000  Level Kansas City Center
12:07PM 38.6961 -99.1161 76° East 207 238 9,000  Level Kansas City Center
12:08PM 38.7092 -99.0478 83° East 207 238 9,000  Level Kansas City Center
12:09PM 38.7158 -98.9764 81° East 207 238 9,000  Level Kansas City Center
12:10PM 38.7250 -98.9022 81° East 201 231 9,000  Level Kansas City Center
12:11PM 38.7339 -98.8283 81° East 201 231 9,000  Level Kansas City Center
12:12PM 38.7428 -98.7544 83° East 201 231 9,000  Level Kansas City Center
12:13PM 38.7494 -98.6803 79° East 201 231 9,000  Level Kansas City Center
12:14PM 38.7606 -98.6061 83° East 201 231 9,000  Level Kansas City Center
12:15PM 38.7672 -98.5322 81° East 201 231 9,000  Level Kansas City Center
12:16PM 38.7758 -98.4606 81° East 201 231 9,000  Level Kansas City Center
12:17PM 38.7844 -98.3892 82° East 201 231 9,100  Climbing Kansas City Center
12:18PM 38.7931 -98.3150 81° East 201 231 9,100  Level Kansas City Center
12:19PM 38.8014 -98.2436 81° East 201 231 9,100  Level Kansas City Center
12:20PM 38.8100 -98.1719 82° East 201 231 9,100  Level Kansas City Center
12:21PM 38.8186 -98.0953 81° East 201 231 9,100  Level Kansas City Center
12:22PM 38.8269 -98.0236 81° East 201 231 9,100  Level Kansas City Center
12:23PM 38.8353 -97.9519 82° East 201 231 9,100  Level Kansas City Center
12:24PM 38.8436 -97.8778 84° East 201 231 9,100  Level Kansas City Center
12:25PM 38.8497 -97.8061 81° East 201 231 9,100  Level Kansas City Center
12:26PM 38.8581 -97.7344 82° East 201 231 9,100  Level Kansas City Center
12:27PM 38.8661 -97.6628 81° East 201 231 9,100  Level Kansas City Center
12:28PM 38.8744 -97.5911 82° East 201 231 9,100  Level Kansas City Center
12:29PM 38.8825 -97.5142 84° East 201 231 9,100  Level Kansas City Center
12:30PM 38.8886 -97.4397 82° East 201 231 9,100  Level Kansas City Center
12:31PM 38.8967 -97.3656 79° East 207 238 9,100  Level Kansas City Center
12:32PM 38.9067 -97.2964 87° East 207 238 9,100 -360 Level Kansas City Center
12:33PM 38.9106 -97.2139 79° East 207 238 8,400 -900 Descending Kansas City Center
12:34PM 38.9228 -97.1317 82° East 223 257 7,400 -600 Descending Kansas City Center
12:35PM 38.9308 -97.0544 84° East 223 257 7,200 -180 Descending Kansas City Center
12:36PM 38.9364 -96.9853 80° East 210 242 7,100 -120 Descending Kansas City Center
12:37PM 38.9461 -96.9136 84° East 205 236 7,000 -60 Descending Kansas City Center
12:38PM 38.9519 -96.8364 82° East 199 229 7,000  Level Kansas City Center
12:39PM 38.9594 -96.7672 80° East 199 229 7,000  Level Kansas City Center
12:40PM 38.9692 -96.6953 83° East 199 229 7,000  Level Kansas City Center
12:41PM 38.9744 -96.6367 91° East 199 229 7,000 -420 Level Kansas City Center
12:42PM 38.9736 -96.5539 103° East 199 229 6,200 -780 Descending Kansas City Center
12:43PM 38.9603 -96.4817 101° East 204 235 5,500 -600 Descending Kansas City Center
12:44PM 38.9489 -96.4064 100° East 204 235 5,000 -300 Descending Kansas City Center
12:45PM 38.9397 -96.3422 102° East 199 229 4,900 -60 Descending Kansas City Center
12:46PM 38.9281 -96.2725 99° East 192 221 4,900  Level Kansas City Center
12:47PM 38.9206 -96.2111 103° East 178 205 5,000  Climbing Kansas City Center
12:48PM 38.9092 -96.1467 97° East 178 205 4,900 -60 Descending Kansas City Center
12:49PM 38.9036 -96.0906 102° East 178 205 4,900 -60 Level Kansas City Center
12:50PM 38.8919 -96.0208 99° East 178 205 4,800  Descending Kansas City Center
12:51PM 38.8844 -95.9594 101° East 183 211 4,900  Climbing Kansas City Center
12:52PM 38.8747 -95.8953 100° East 183 211 4,900 60 Level Kansas City Center
12:53PM 38.8669 -95.8392 98° East 183 211 5,100 120 Climbing Kansas City Center
12:54PM 38.8594 -95.7697 99° East 183 211 5,200 -60 Climbing Kansas City Center
12:55PM 38.8517 -95.7056 101° East 183 211 5,000 -300 Descending Kansas City Center
12:56PM 38.8419 -95.6389 98° East 183 211 4,700 -480 Descending Kansas City Center
12:57PM 38.8342 -95.5719 95° East 189 217 4,100 -420 Descending Kansas City Center
12:58PM 38.8286 -95.4972 89° East 189 217 3,900 -120 Descending Kansas City Center
12:59PM 38.8292 -95.4361 41° Northeast 183 211 3,900 -60 Level Kansas City Center
01:00PM 38.8650 -95.3964 349° North 157 181 3,800 -300 Descending Kansas City Center
01:01PM 38.9086 -95.4078 North 139 160 3,300 -300 Descending Kansas City Center
01:02PM 38.9586 -95.4056 304° West 166 191 3,200 -240 Descending Kansas City Center
01:03PM 38.9811 -95.4486 290° West 141 162 2,900 -120 Descending Kansas City Center
01:04PM 38.9933 -95.4914 293° West 135 155 3,000 60 Climbing Kansas City Center
01:05PM 39.0056 -95.5292 303° West 135 155 3,100 -300 Climbing Kansas City Center
01:06PM 39.0261 -95.5694 317° Northwest 129 148 2,500 -780 Descending Kansas City Center
01:07PM 39.0550 -95.6047 314° West 129 148 1,600 -600 Descending Kansas City Center
01:08PM 39.0756 -95.6317 340° North 119 137 1,300 180 Descending Kansas City Center
01:09PM 39.1044 -95.6456 78° East 113 130 2,000 660 Climbing Kansas City Center
01:10PM 39.1111 -95.6056 41° Northeast 99 114 2,700 540 Climbing Kansas City Center
01:11PM 39.1303 -95.5844 79° East 96 110 3,100 3,120 Climbing Kansas City Center
01:12PM 39.1369 -95.5389 69° East 96 110 9,000 2,940 Climbing Kansas City Center
01:13PM 39.1475 -95.5042 66° East 96 110 9,000 -3,000 Level Kansas City Center
01:14PM 39.1583 -95.4722 68° East 96 110 3,100 -3,000 Descending Kansas City Center
01:15PM 39.1689 -95.4378 360° North 96 110 3,100  Level Kansas City Center
01:16PM 39.1689 -95.4378 360° North 96 110 3,100  Level Kansas City Center
01:17PM 39.1689 -95.4378 360° North 96 110 3,100  Level Kansas City Center
01:18PM 39.1689 -95.4378 360° North 96 110 3,100  Level Kansas City Center
01:19PM 39.1689 -95.4378 360° North 96 110 3,100  Level Kansas City Center
01:20PM 39.1689 -95.4378 360° North 96 110 3,100  Level Kansas City Center
01:21PM 39.1689 -95.4378 360° North 96 110 3,100  Level Kansas City Center
01:22PM 39.1689 -95.4378 360° North 96 110 3,100  Level Kansas City Center
01:23PM 39.1689 -95.4378 360° North 96 110 3,100  Level Kansas City Center
01:24PM 39.1689 -95.4378 360° North 96 110 3,100  Level Kansas City Center
01:25PM 39.1689 -95.4378 360° North 96 110 3,100  Level Kansas City Center
01:26PM 39.1689 -95.4378 360° North 96 110 3,100  Level Kansas City Center
01:27PM 39.1689 -95.4378 360° North 96 110 3,100  Level Kansas City Center
01:28PM 39.1689 -95.4378 360° North 96 110 3,100  Level Kansas City Center
01:29PM 39.1689 -95.4378 360° North 96 110 3,100  Level Kansas City Center
01:30PM 39.1689 -95.4378 360° North 96 110 3,100  Level Kansas City Center
01:31PM 39.1689 -95.4378 360° North 96 110 3,100  Level Kansas City Center
01:32PM 39.1689 -95.4378 360° North 96 110 3,100  Level Kansas City Center
01:33PM 39.1689 -95.4378 360° North 96 110 3,100  Level Kansas City Center
01:34PM 39.1689 -95.4378 360° North 96 110 3,100  Level Kansas City Center
01:35PM 39.1689 -95.4378 360° North 96 110 3,100  Level Kansas City Center
01:36PM 39.1689 -95.4378 360° North 96 110 3,100  Level Kansas City Center
01:37PM 39.1689 -95.4378 360° North 96 110 3,100  Level Kansas City Center
01:38PM 39.1689 -95.4378 360° North 96 110 3,100  Level Kansas City Center
01:39PM 39.1689 -95.4378 360° North 96 110 3,100  Level Kansas City Center
01:40PM 39.1689 -95.4378 360° North 96 110 3,100  Level Kansas City Center
01:41PM 39.1689 -95.4378 360° North 96 110 3,100  Level Kansas City Center
01:42PM 39.1689 -95.4378 360° North 96 110 3,100  Level Kansas City Center
01:43PM 39.1689 -95.4378 360° North 96 110 3,100  Level Kansas City Center
01:44PM 39.1689 -95.4378 360° North 96 110 3,100  Level Kansas City Center
01:45PM 39.1689 -95.4378 360° North 96 110 3,100  Level Kansas City Center
01:46PM 39.1689 -95.4378 360° North 96 110 3,100  Level Kansas City Center
01:47PM 39.1689 -95.4378 360° North 96 110 3,100  Level Kansas City Center
01:48PM 39.1689 -95.4378 360° North 96 110 3,100  Level Kansas City Center
01:49PM 39.1689 -95.4378 360° North 96 110 3,100  Level Kansas City Center
01:50PM 39.1689 -95.4378 360° North 96 110 3,100  Level Kansas City Center
01:51PM 39.1689 -95.4378 360° North 96 110 3,100  Level Kansas City Center
01:52PM 39.1689 -95.4378 360° North 96 110 3,100  Level Kansas City Center
01:53PM 39.1689 -95.4378 360° North 96 110 3,100  Level Kansas City Center
01:54PM 39.1689 -95.4378 360° North 96 110 3,100  Level Kansas City Center
01:55PM 39.1689 -95.4378 360° North 96 110 3,100  Level Kansas City Center
01:56PM 39.1689 -95.4378 360° North 96 110 3,100  Level Kansas City Center
01:57PM 39.1689 -95.4378 360° North 96 110 3,100  Level Kansas City Center
01:58PM 39.1689 -95.4378 360° North 96 110 3,100  Level Kansas City Center
01:59PM 39.1689 -95.4378 360° North 96 110 3,100  Level Kansas City Center